Time;durP1;ratioP1;P1;durP2;ratioP2;P2;SDS_P1;SDS_P2;PMS_P1;PMS_P2;Temp;Humidity;BMP_temperature;BMP_pressure;BME280_temperature;BME280_humidity;BME280_pressure;Samples;Min_cycle;Max_cycle;Signal;HPM_P1;HPM_P2
2021/06/24 00:07:27;;;;;;;5.40;3.70;;;22.40;63.30;;;;;;20908332;28;20025;-20
2021/06/24 00:17:28;;;;;;;6.28;3.65;;;22.30;63.30;;;;;;20902659;28;20118;-20
2021/06/24 00:27:29;;;;;;;9.40;3.85;;;22.40;63.20;;;;;;20919140;28;20028;-20
2021/06/24 00:37:30;;;;;;;8.25;3.30;;;22.30;63.10;;;;;;20913483;28;20501;-20
2021/06/24 00:47:30;;;;;;;5.63;3.33;;;22.30;63.20;;;;;;20912703;28;20400;-21
2021/06/24 00:57:32;;;;;;;5.22;3.92;;;22.30;63.00;;;;;;20898561;28;20024;-21
2021/06/24 01:07:32;;;;;;;8.90;3.33;;;22.30;62.90;;;;;;20911797;28;20025;-20
2021/06/24 01:17:33;;;;;;;3.92;2.92;;;22.30;62.80;;;;;;20910091;28;20060;-20
2021/06/24 01:27:34;;;;;;;4.03;2.50;;;22.30;62.80;;;;;;20887562;28;20095;-21
2021/06/24 01:37:34;;;;;;;7.10;3.13;;;22.20;62.60;;;;;;20908190;28;20089;-20
2021/06/24 01:47:35;;;;;;;5.32;2.53;;;22.30;62.50;;;;;;20906479;28;20039;-20
2021/06/24 01:57:36;;;;;;;5.43;3.25;;;22.30;62.50;;;;;;20899238;28;20105;-20
2021/06/24 02:07:42;;;;;;;5.35;3.03;;;22.20;62.30;;;;;;20867894;28;20028;-20
2021/06/24 02:17:43;;;;;;;5.05;2.63;;;22.20;62.20;;;;;;20857375;28;20400;-21
2021/06/24 02:27:44;;;;;;;5.85;3.38;;;22.20;62.20;;;;;;20851327;28;20087;-20
2021/06/24 02:37:45;;;;;;;5.30;2.78;;;22.20;62.10;;;;;;20853691;28;20060;-20
2021/06/24 02:47:46;;;;;;;4.78;2.78;;;22.20;62.00;;;;;;20845748;28;20060;-20
2021/06/24 02:57:46;;;;;;;5.35;2.70;;;22.20;61.90;;;;;;20852174;28;20033;-19
2021/06/24 03:07:47;;;;;;;5.60;2.42;;;22.20;61.90;;;;;;20872139;28;20099;-19
2021/06/24 03:17:48;;;;;;;4.68;2.55;;;22.20;61.80;;;;;;20865287;28;20515;-20
2021/06/24 03:27:50;;;;;;;3.47;2.40;;;22.20;61.80;;;;;;20860625;28;20041;-21
2021/06/24 03:37:51;;;;;;;4.90;2.60;;;22.20;61.70;;;;;;20863134;28;20808;-20
2021/06/24 03:47:51;;;;;;;4.13;2.20;;;22.20;61.70;;;;;;20863142;28;20037;-19
2021/06/24 03:57:52;;;;;;;3.40;2.25;;;22.10;61.60;;;;;;20850826;28;20128;-20
2021/06/24 04:07:52;;;;;;;5.93;2.63;;;22.10;61.60;;;;;;20877280;28;20136;-20
2021/06/24 04:17:54;;;;;;;6.00;2.13;;;22.20;61.60;;;;;;20902101;28;20112;-20
2021/06/24 04:27:55;;;;;;;5.30;2.63;;;22.20;61.60;;;;;;20909643;28;20493;-19
2021/06/24 04:37:56;;;;;;;6.05;2.58;;;22.10;61.50;;;;;;20900707;28;20508;-20
2021/06/24 04:47:56;;;;;;;5.00;2.50;;;22.10;61.50;;;;;;20911890;28;20378;-20
2021/06/24 04:57:57;;;;;;;3.88;2.47;;;22.10;61.40;;;;;;20911956;28;20551;-20
2021/06/24 05:08:00;;;;;;;4.80;2.42;;;22.10;61.40;;;;;;20896373;28;20057;-19
2021/06/24 05:18:01;;;;;;;3.22;1.98;;;22.10;61.40;;;;;;20857877;28;20139;-19
2021/06/24 05:28:02;;;;;;;2.10;1.77;;;22.10;61.30;;;;;;20866487;28;20029;-19
2021/06/24 05:38:02;;;;;;;3.67;2.03;;;22.10;61.30;;;;;;20859876;28;20124;-19
2021/06/24 05:48:04;;;;;;;6.15;2.15;;;22.20;61.30;;;;;;20878388;23;21066;-19
2021/06/24 05:58:04;;;;;;;28.02;3.90;;;22.20;61.10;;;;;;20893739;28;20505;-20
2021/06/24 06:08:06;;;;;;;26.70;6.13;;;22.20;61.10;;;;;;20885488;28;20036;-20
2021/06/24 06:18:13;;;;;;;19.58;6.68;;;22.20;61.10;;;;;;20902470;28;20079;-21
2021/06/24 06:28:15;;;;;;;22.67;6.72;;;22.20;61.20;;;;;;20924332;28;20087;-21
2021/06/24 06:38:16;;;;;;;24.52;7.30;;;22.20;61.20;;;;;;20917280;28;20389;-21
2021/06/24 06:48:17;;;;;;;25.88;7.53;;;22.20;61.20;;;;;;20906795;28;20037;-21
2021/06/24 06:58:18;;;;;;;18.70;7.07;;;22.10;61.10;;;;;;20869925;28;20026;-20
2021/06/24 07:08:19;;;;;;;21.08;6.60;;;22.10;61.20;;;;;;20819538;28;20037;-20
2021/06/24 07:18:19;;;;;;;18.17;5.22;;;22.20;61.10;;;;;;20840204;28;20049;-22
2021/06/24 07:28:20;;;;;;;20.30;5.80;;;22.20;61.40;;;;;;20855618;28;20025;-20
2021/06/24 07:38:20;;;;;;;22.33;5.13;;;22.20;61.10;;;;;;20831826;28;20039;-21
2021/06/24 07:48:21;;;;;;;11.87;4.60;;;22.20;61.30;;;;;;20833639;28;20864;-21
2021/06/24 07:58:22;;;;;;;12.13;5.07;;;22.20;61.40;;;;;;20891417;28;20463;-21
2021/06/24 08:08:22;;;;;;;9.70;4.90;;;22.20;61.50;;;;;;20844217;28;20480;-20
2021/06/24 08:18:23;;;;;;;12.63;5.32;;;22.20;61.50;;;;;;20855463;28;20483;-21
2021/06/24 08:28:24;;;;;;;13.50;5.43;;;22.30;61.70;;;;;;20843303;28;20029;-20
2021/06/24 08:38:25;;;;;;;11.52;4.45;;;22.30;61.50;;;;;;20855614;28;20083;-20
2021/06/24 08:48:26;;;;;;;10.88;3.80;;;22.30;61.60;;;;;;20861254;28;20032;-20
2021/06/24 08:58:26;;;;;;;13.82;4.28;;;22.30;61.60;;;;;;20853969;28;20069;-20
2021/06/24 09:08:41;;;;;;;9.73;3.90;;;22.30;61.70;;;;;;20848926;28;20107;-20
2021/06/24 09:18:42;;;;;;;10.07;4.07;;;22.40;61.40;;;;;;20827842;28;20568;-20
2021/06/24 09:28:50;;;;;;;11.18;4.05;;;22.40;61.50;;;;;;20830333;28;20033;-21
2021/06/24 09:38:51;;;;;;;7.82;3.65;;;22.40;61.40;;;;;;20878408;28;20091;-19
2021/06/24 09:48:59;;;;;;;8.90;3.17;;;22.40;61.40;;;;;;20838746;28;20040;-21
2021/06/24 09:59:03;;;;;;;8.53;3.90;;;22.40;61.40;;;;;;20843803;28;20029;-20
2021/06/24 10:09:04;;;;;;;9.93;3.42;;;22.40;61.40;;;;;;20861267;28;20029;-19
2021/06/24 10:19:05;;;;;;;5.82;2.97;;;22.50;61.40;;;;;;20824530;28;20028;-20
2021/06/24 10:29:10;;;;;;;7.53;3.58;;;22.50;61.40;;;;;;20832208;28;20041;-21
2021/06/24 10:39:14;;;;;;;8.25;3.10;;;22.50;61.30;;;;;;20828758;28;20025;-20
2021/06/24 10:49:24;;;;;;;8.40;3.72;;;22.50;61.20;;;;;;20823274;28;20037;-22
2021/06/24 10:59:27;;;;;;;7.40;3.17;;;22.60;61.30;;;;;;20798321;28;20025;-22
2021/06/24 11:09:28;;;;;;;6.07;2.95;;;22.50;61.10;;;;;;20832008;28;20024;-21
2021/06/24 11:19:28;;;;;;;5.50;2.67;;;22.50;61.20;;;;;;20852622;28;20112;-20
2021/06/24 11:29:39;;;;;;;6.78;2.80;;;22.50;61.10;;;;;;20845168;28;20051;-20
2021/06/24 11:39:48;;;;;;;6.40;2.25;;;22.50;61.00;;;;;;20835973;28;20032;-21
2021/06/24 12:01:44;;;;;;;4.75;2.63;;;22.60;61.10;;;;;;20852390;28;20044;-20
2021/06/24 12:11:12;;;;;;;6.72;2.42;;;22.60;61.00;;;;;;20846758;23;20045;-19
2021/06/24 12:21:15;;;;;;;5.25;2.35;;;22.60;61.00;;;;;;20832449;28;20044;-19
2021/06/24 12:31:24;;;;;;;2.85;2.22;;;22.50;61.10;;;;;;20827502;28;20029;-20
2021/06/24 12:41:28;;;;;;;5.10;2.25;;;22.50;61.20;;;;;;20832391;28;20029;-20
2021/06/24 12:51:28;;;;;;;4.28;1.95;;;22.50;61.20;;;;;;20830793;28;20030;-18
2021/06/24 13:01:36;;;;;;;5.57;2.13;;;22.50;61.10;;;;;;20831119;28;20029;-20
2021/06/24 13:11:49;;;;;;;8.23;2.80;;;22.40;61.20;;;;;;20830035;28;20507;-19
2021/06/24 13:22:09;;;;;;;3.40;2.30;;;22.50;61.30;;;;;;20835404;28;20109;-19
2021/06/24 13:32:10;;;;;;;5.25;2.50;;;22.40;60.90;;;;;;20831018;28;20040;-19
2021/06/24 13:42:11;;;;;;;7.18;3.40;;;22.50;61.50;;;;;;20825588;28;20457;-19
2021/06/24 13:52:12;;;;;;;4.07;2.30;;;22.40;61.20;;;;;;20827858;28;20026;-19
2021/06/24 14:02:13;;;;;;;5.20;2.50;;;22.40;61.20;;;;;;20826452;28;20038;-19
2021/06/24 14:12:13;;;;;;;7.65;3.17;;;22.40;61.00;;;;;;20824223;28;20053;-19
2021/06/24 14:22:14;;;;;;;6.32;2.55;;;22.40;60.90;;;;;;20824805;28;20029;-20
2021/06/24 14:32:15;;;;;;;10.13;2.35;;;22.40;60.90;;;;;;20825711;28;20037;-20
2021/06/24 14:42:15;;;;;;;6.33;3.20;;;22.40;60.70;;;;;;20823011;28;20086;-20
2021/06/24 14:52:16;;;;;;;10.82;3.17;;;22.30;60.60;;;;;;20823594;28;20472;-20
2021/06/24 15:02:17;;;;;;;4.13;2.22;;;22.40;60.70;;;;;;20821603;28;20029;-20
2021/06/24 15:12:17;;;;;;;7.00;3.10;;;22.40;60.60;;;;;;20820396;28;20128;-20
2021/06/24 15:22:18;;;;;;;5.88;2.72;;;22.30;60.60;;;;;;20819854;28;20065;-20
2021/06/24 15:32:19;;;;;;;6.65;1.95;;;22.30;60.50;;;;;;20819627;28;20094;-20
2021/06/24 15:42:19;;;;;;;3.60;2.67;;;22.40;60.60;;;;;;20818992;28;20473;-20
2021/06/24 15:52:20;;;;;;;5.85;2.42;;;22.30;60.50;;;;;;20818400;28;20113;-20
2021/06/24 16:02:20;;;;;;;6.32;2.30;;;22.30;60.50;;;;;;20820836;28;20516;-20
2021/06/24 16:12:21;;;;;;;4.60;2.17;;;22.30;60.50;;;;;;20832156;28;20083;-20
2021/06/24 16:22:21;;;;;;;5.57;2.67;;;22.30;60.60;;;;;;20830203;28;20576;-20
2021/06/24 16:32:22;;;;;;;4.65;1.65;;;22.30;60.70;;;;;;20790164;28;20502;-19
2021/06/24 16:42:23;;;;;;;3.63;1.70;;;22.30;60.60;;;;;;20805447;28;20026;-19
2021/06/24 16:52:23;;;;;;;6.60;2.57;;;22.30;60.70;;;;;;20829993;28;20539;-19
2021/06/24 17:02:24;;;;;;;9.63;2.00;;;22.30;60.60;;;;;;20829497;28;20026;-20
2021/06/24 17:12:27;;;;;;;7.77;2.30;;;22.30;60.60;;;;;;20827669;28;20508;-16
2021/06/24 17:22:28;;;;;;;3.17;2.08;;;22.30;60.50;;;;;;20800195;28;20117;-20
2021/06/24 17:32:28;;;;;;;5.10;2.20;;;22.30;60.50;;;;;;20814055;28;20434;-19
2021/06/24 17:42:30;;;;;;;4.43;1.77;;;22.30;60.50;;;;;;20794624;28;20534;-20
2021/06/24 17:52:30;;;;;;;4.70;2.25;;;22.30;60.50;;;;;;20824060;28;20108;-20
2021/06/24 18:02:31;;;;;;;5.28;2.15;;;22.30;60.50;;;;;;20813169;28;20188;-20
2021/06/24 18:12:32;;;;;;;8.93;2.15;;;22.30;60.50;;;;;;20832205;23;20037;-21
2021/06/24 18:22:33;;;;;;;12.02;2.38;;;22.30;60.80;;;;;;20850508;28;20036;-19
2021/06/24 18:32:34;;;;;;;13.73;2.70;;;22.20;60.60;;;;;;20854292;28;20025;-20
2021/06/24 18:42:35;;;;;;;10.70;2.75;;;22.20;60.60;;;;;;20871947;28;20503;-20
2021/06/24 18:52:35;;;;;;;5.25;2.55;;;22.20;60.70;;;;;;20820571;28;20040;-20
2021/06/24 19:02:36;;;;;;;10.50;2.65;;;22.20;61.00;;;;;;20821278;28;20611;-19
2021/06/24 19:12:37;;;;;;;9.88;3.40;;;22.20;61.20;;;;;;20822946;28;20053;-20
2021/06/24 19:22:37;;;;;;;12.52;3.30;;;22.20;61.80;;;;;;20825350;28;20029;-20
2021/06/24 19:32:38;;;;;;;6.20;2.97;;;22.20;61.90;;;;;;20833752;28;20029;-19
2021/06/24 19:42:40;;;;;;;7.95;2.67;;;22.30;62.00;;;;;;20848831;28;20034;-20
2021/06/24 19:52:41;;;;;;;10.85;2.05;;;22.30;62.00;;;;;;20863436;28;20452;-19
2021/06/24 20:02:42;;;;;;;5.28;2.38;;;22.30;62.00;;;;;;20833709;28;20076;-21
2021/06/24 20:12:43;;;;;;;9.05;1.95;;;22.30;61.90;;;;;;20857935;28;20060;-19
2021/06/24 20:22:44;;;;;;;6.35;2.45;;;22.30;62.10;;;;;;20862956;28;20063;-20
2021/06/24 20:32:45;;;;;;;8.90;2.95;;;22.30;62.00;;;;;;20852915;28;20029;-19
2021/06/24 20:42:48;;;;;;;9.70;2.50;;;22.30;62.00;;;;;;20856459;28;20603;-18
2021/06/24 20:52:49;;;;;;;6.13;3.08;;;22.30;62.00;;;;;;20880697;28;20029;-20
2021/06/24 21:02:52;;;;;;;6.97;2.50;;;22.30;62.10;;;;;;20872604;28;20128;-20
2021/06/24 21:12:53;;;;;;;5.38;2.28;;;22.30;61.90;;;;;;20905334;28;20029;-20
2021/06/24 21:22:54;;;;;;;6.40;2.90;;;22.30;61.70;;;;;;20892074;28;20029;-20
2021/06/24 21:32:55;;;;;;;5.10;2.10;;;22.30;61.70;;;;;;20835146;28;20103;-20
2021/06/24 21:42:55;;;;;;;7.05;2.35;;;22.30;61.60;;;;;;20823896;28;20026;-19
2021/06/24 21:52:56;;;;;;;9.45;2.85;;;22.20;61.60;;;;;;20829545;28;20026;-20
2021/06/24 22:02:56;;;;;;;11.65;3.45;;;22.20;62.20;;;;;;20902402;28;20503;-20
2021/06/24 22:12:57;;;;;;;14.60;4.15;;;22.20;62.30;;;;;;20907212;28;20035;-19
2021/06/24 22:22:57;;;;;;;14.13;2.88;;;22.20;62.40;;;;;;20906734;28;20082;-20
2021/06/24 22:32:58;;;;;;;11.50;3.17;;;22.20;62.40;;;;;;20907002;28;20050;-20
2021/06/24 22:42:59;;;;;;;10.57;4.23;;;22.20;62.50;;;;;;20913464;28;20029;-20
2021/06/24 22:52:59;;;;;;;8.50;3.03;;;22.20;62.40;;;;;;20908078;28;20459;-20
2021/06/24 23:03:00;;;;;;;9.63;3.42;;;22.20;62.40;;;;;;20884047;28;20040;-20
2021/06/24 23:13:00;;;;;;;10.25;3.15;;;22.20;62.30;;;;;;20904069;28;20021;-20
2021/06/24 23:23:01;;;;;;;5.05;3.05;;;22.20;62.20;;;;;;20901909;28;20520;-20
2021/06/24 23:33:03;;;;;;;7.80;3.65;;;22.20;62.10;;;;;;20901589;28;20040;-20
2021/06/24 23:43:03;;;;;;;8.48;3.35;;;22.20;62.00;;;;;;20901213;28;20032;-20
2021/06/24 23:53:04;;;;;;;9.50;3.50;;;22.20;62.00;;;;;;20902673;28;20029;-20
